Annapolis, MD (21403)

6:08 PM EDT on July 23, 2016 (GMT -0400)
Eastport | | Change Station
Active Advisory: Heat Advisory

Elev 33 ft 38.96 °N, 76.49 °W | Updated 38 seconds ago

Partly Cloudy
Partly Cloudy
90.5 °F
Feels Like 107 °F
N
0.0
Wind Variable Wind from ESE
Gusts 0.0 mph

Today
High -- | Low -- °F
--% Chance of Precip.
Yesterday
High -- | Low -- °F
Precip. -- in
Pressure 29.86 in
Visibility 10.0 miles
Clouds Few 7500 ft
Heat Index 107 °F
Dew Point 79 °F
Humidity 69%
Rainfall 0.00 in
Snow Depth Not available.
5:59 AM 8:24 PM
Waning Gibbous, 82% visible
METAR KNAK 232154Z AUTO 18006KT 10SM FEW075 32/25 A2985 RMK AO2 SLP109 T03220250 $
Pressure 29.86 in
Visibility 10.0 miles
Clouds Few 7500 ft
Heat Index 107 °F
Dew Point 79 °F
Humidity 69%
Rainfall 0.00 in
Snow Depth Not available.
5:59 AM 8:24 PM
Waning Gibbous, 82% visible
METAR KNAK 232154Z AUTO 18006KT 10SM FEW075 32/25 A2985 RMK AO2 SLP109 T03220250 $

10-Day Weather Forecast

Almanac

Astronomy

Jul. 23, 2016 Rise Set
Actual Time
Civil Twilight
Nautical Twilight
Astronomical Twilight
Moon
Length of Visible Light
Length of Day
Tomorrow will be .
, % of the Moon is Illuminated

Today's Extremes

State Highs State Lows

Community

WunderPhotos

Upload Photos

1,926,942 photos uploaded!

WunderBlog® & News

Nearby

Air Quality

  Air Quality AQ Index Pollutant
Not available.

Snow Depth

Station Depth Elevation

Earthquake Activity

City Distance Mag. Time & Date
Minimum magnitude displayed is 2.5.

Coastal Water Temperatures

Place Temperature

Stations

Nearby Weather Stations

Station Location Temp. Windchill Dew Point Humidity Wind Precip. Elev Updated Type
                   

Watches & Warnings

Heat Advisory
Issued: 3:02 PM EDT Jul. 23, 2016 – National Weather Service

... Heat advisory remains in effect until 8 PM EDT this evening...

* heat index values... around 105 degrees due to temperatures in
the mid to upper 90s and dewpoints near 70.

* Impacts... risk of heat-related illness for those without air-
conditioning or those outdoors for an extended period.

Precautionary/preparedness actions...

A heat advisory means that a period of high temperatures is
expected. The combination of high temperatures and high humidity
will create a situation in which heat illnesses are possible.

Take extra precautions if you work or spend time outside. When
possible... reschedule strenuous activities to early morning or
evening. Know the signs and symptoms of heat exhaustion and heat
stroke. Wear light weight and loose fitting clothing when
possible and drink plenty of water.

To reduce risk during outdoor work... the occupational safety and
health administration recommends scheduling frequent rest breaks
in shaded or air conditioned environments. Anyone overcome by
heat should be moved to a cool and shaded location. Heat stroke
is an emergency - call 911.